Time;durP1;ratioP1;P1;durP2;ratioP2;P2;SDS_P1;SDS_P2;PMS_P1;PMS_P2;Temp;Humidity;BMP_temperature;BMP_pressure;BME280_temperature;BME280_humidity;BME280_pressure;Samples;Min_cycle;Max_cycle;Signal;HPM_P1;HPM_P2
2021/03/01 00:02:23;;;;;;;13.43;8.07;;;;;;;4.10;59.69;97081.72;4991158;28;20042;-49
2021/03/01 00:04:50;;;;;;;12.25;7.47;;;;;;;3.58;62.13;97085.22;4992431;28;20550;-50
2021/03/01 00:07:17;;;;;;;13.98;8.07;;;;;;;3.39;62.79;97072.25;4993649;28;20132;-47
2021/03/01 00:09:43;;;;;;;15.02;8.00;;;;;;;3.26;63.09;97086.88;4979013;28;20120;-49
2021/03/01 00:12:10;;;;;;;12.70;7.85;;;;;;;3.01;64.11;97079.47;4991243;28;20155;-48
2021/03/01 00:14:37;;;;;;;13.32;8.00;;;;;;;3.10;64.18;97071.00;4991614;28;20507;-46
2021/03/01 00:17:03;;;;;;;12.73;7.97;;;;;;;3.48;62.29;97065.38;4989919;28;20061;-45
2021/03/01 00:19:30;;;;;;;14.27;9.13;;;;;;;3.25;63.10;97063.88;4978335;28;20061;-48
2021/03/01 00:21:56;;;;;;;13.38;8.43;;;;;;;3.21;63.19;97069.97;4993222;28;20078;-46
2021/03/01 00:24:23;;;;;;;12.48;7.93;;;;;;;2.97;64.19;97064.19;4993198;28;20054;-48
2021/03/01 00:26:49;;;;;;;12.52;7.97;;;;;;;3.04;63.61;97062.91;4989479;28;20459;-45
2021/03/01 00:29:15;;;;;;;13.05;8.73;;;;;;;3.01;63.90;97060.75;4989432;28;20506;-47
2021/03/01 00:31:58;;;;;;;14.85;8.88;;;;;;;2.88;64.22;97069.19;4987661;28;20046;-47
2021/03/01 00:34:24;;;;;;;14.65;8.73;;;;;;;2.91;64.25;97063.34;4993088;28;20053;-47
2021/03/01 00:36:51;;;;;;;13.60;8.60;;;;;;;3.17;63.38;97068.91;4992565;28;20441;-45
2021/03/01 00:39:17;;;;;;;14.82;9.07;;;;;;;3.39;61.88;97063.44;4983864;28;20108;-45
2021/03/01 00:41:44;;;;;;;13.60;8.65;;;;;;;3.15;62.47;97052.28;4992073;28;20077;-45
2021/03/01 00:44:10;;;;;;;13.95;8.93;;;;;;;3.15;63.01;97057.63;4989521;28;20658;-46
2021/03/01 00:46:37;;;;;;;13.45;8.52;;;;;;;2.92;63.97;97064.16;4992294;28;20125;-49
2021/03/01 00:49:04;;;;;;;14.77;8.73;;;;;;;3.01;63.38;97058.06;4973666;28;20054;-46
2021/03/01 00:51:30;;;;;;;14.23;8.45;;;;;;;2.50;65.41;97056.84;4987719;28;20046;-48
2021/03/01 00:53:57;;;;;;;17.05;9.38;;;;;;;2.30;66.06;97052.91;4990736;28;20503;-49
2021/03/01 00:56:27;;;;;;;14.65;9.07;;;;;;;2.57;64.79;97066.28;4988699;28;20455;-48
2021/03/01 00:58:54;;;;;;;17.52;9.38;;;;;;;2.48;65.12;97075.81;4990623;28;20046;-50
2021/03/01 01:01:21;;;;;;;19.50;9.38;;;;;;;2.75;64.19;97070.44;4982354;28;20113;-49
2021/03/01 01:03:48;;;;;;;14.65;9.20;;;;;;;2.58;65.10;97065.22;4990733;28;20097;-46
2021/03/01 01:06:28;;;;;;;13.10;8.65;;;;;;;2.97;63.54;97061.53;4990417;28;20064;-48
2021/03/01 01:08:54;;;;;;;13.65;8.38;;;;;;;2.38;65.90;97070.34;4982649;28;20179;-48
2021/03/01 01:11:21;;;;;;;14.90;9.45;;;;;;;2.79;64.63;97078.75;4981182;28;20074;-50
2021/03/01 01:13:47;;;;;;;12.85;8.32;;;;;;;2.89;63.69;97075.34;4990148;28;20050;-51
2021/03/01 01:16:14;;;;;;;14.02;8.70;;;;;;;2.27;65.45;97064.09;4990821;28;20046;-50
2021/03/01 01:18:41;;;;;;;16.77;8.93;;;;;;;2.04;66.53;97051.81;4980952;28;20051;-42
2021/03/01 01:21:08;;;;;;;14.18;9.10;;;;;;;1.93;67.22;97055.44;4973721;28;20046;-51
2021/03/01 01:23:34;;;;;;;13.70;8.57;;;;;;;1.76;68.55;97070.72;4990354;28;20464;-46
2021/03/01 01:26:01;;;;;;;15.60;8.82;;;;;;;2.37;66.49;97063.38;4984656;28;20067;-48
2021/03/01 01:28:27;;;;;;;14.77;9.43;;;;;;;2.78;64.46;97061.09;4991471;28;20503;-52
2021/03/01 01:30:53;;;;;;;14.65;9.10;;;;;;;2.06;67.10;97067.59;4980001;28;20147;-50
2021/03/01 01:33:20;;;;;;;14.70;9.00;;;;;;;1.74;67.76;97049.59;4990643;28;20050;-49
2021/03/01 01:35:47;;;;;;;13.45;8.82;;;;;;;2.24;66.30;97061.94;4991277;28;20082;-47
2021/03/01 01:38:13;;;;;;;14.55;9.10;;;;;;;2.26;66.04;97067.81;4992337;28;20105;-48
2021/03/01 01:40:40;;;;;;;14.07;8.50;;;;;;;1.83;68.17;97066.81;4977609;28;20531;-49
2021/03/01 01:43:07;;;;;;;15.82;10.00;;;;;;;2.02;67.91;97061.16;4959433;28;20475;-46
2021/03/01 01:45:33;;;;;;;13.88;8.82;;;;;;;2.34;66.19;97075.41;4991543;28;20460;-48
2021/03/01 01:48:00;;;;;;;15.55;9.70;;;;;;;2.15;66.90;97073.31;4978201;28;20047;-48
2021/03/01 01:50:28;;;;;;;16.10;9.73;;;;;;;2.12;67.03;97071.16;4989255;28;20050;-42
2021/03/01 01:52:56;;;;;;;15.45;9.70;;;;;;;2.17;66.54;97061.31;4990579;28;20129;-48
2021/03/01 01:55:24;;;;;;;14.38;9.13;;;;;;;2.57;65.03;97068.94;4984006;28;20484;-43
2021/03/01 01:57:51;;;;;;;14.95;8.90;;;;;;;2.44;65.16;97066.69;4990699;28;20078;-42
2021/03/01 02:00:43;;;;;;;15.43;9.50;;;;;;;2.56;64.70;97061.97;4983227;28;20133;-42
2021/03/01 02:03:36;;;;;;;16.38;9.73;;;;;;;2.68;64.44;97063.69;4989783;28;20112;-42
2021/03/01 02:06:16;;;;;;;15.23;9.77;;;;;;;2.71;64.27;97049.81;4990940;28;20137;-43
2021/03/01 02:08:48;;;;;;;15.25;9.10;;;;;;;2.37;66.08;97046.56;4985410;28;20062;-43
2021/03/01 02:11:57;;;;;;;16.60;9.70;;;;;;;2.60;64.91;97037.41;4975882;28;20046;-43
2021/03/01 02:14:40;;;;;;;17.17;9.68;;;;;;;2.72;64.66;97038.06;4990967;28;20170;-42
2021/03/01 02:17:07;;;;;;;;;;;;;;;2.65;64.72;97034.81;4991310;28;20484;-42
2021/03/01 02:19:37;;;;;;;16.42;9.88;;;;;;;1.94;67.62;97034.91;4978968;28;20400;-42
2021/03/01 02:22:05;;;;;;;14.63;8.82;;;;;;;1.83;68.28;97033.97;4989292;28;20058;-43
2021/03/01 02:24:38;;;;;;;14.90;9.02;;;;;;;2.04;67.36;97022.47;4992772;28;20054;-42
2021/03/01 02:27:05;;;;;;;;;;;;;;;2.02;66.98;97024.59;4987716;28;20101;-44
2021/03/01 02:29:33;;;;;;;17.73;9.88;;;;;;;1.87;66.84;97043.09;4973778;28;19922;-43
2021/03/01 02:32:02;;;;;;;15.55;9.52;;;;;;;0.89;71.40;97034.84;4992714;28;20136;-43
2021/03/01 02:34:34;;;;;;;19.92;8.98;;;;;;;1.12;71.07;97037.31;4992809;28;20050;-44
2021/03/01 02:37:06;;;;;;;15.90;9.05;;;;;;;1.44;70.14;97036.69;4992287;28;20062;-44
2021/03/01 02:39:37;;;;;;;16.20;9.75;;;;;;;1.66;69.77;97042.06;4987437;28;20050;-44
2021/03/01 02:42:05;;;;;;;19.33;10.10;;;;;;;1.46;69.87;97031.09;4992660;28;20570;-42
2021/03/01 02:44:33;;;;;;;16.98;10.15;;;;;;;1.51;70.35;97041.84;4991913;28;20046;-42
2021/03/01 02:47:00;;;;;;;19.67;9.55;;;;;;;1.46;70.19;97042.56;4993224;28;20053;-43
2021/03/01 02:49:28;;;;;;;16.48;9.20;;;;;;;1.55;70.21;97040.28;4986190;28;20436;-41
2021/03/01 02:51:56;;;;;;;15.48;10.02;;;;;;;1.61;69.45;97029.44;4991676;28;20046;-42
2021/03/01 02:54:24;;;;;;;16.00;9.45;;;;;;;1.66;69.53;97042.06;4994576;28;20054;-42
2021/03/01 02:56:51;;;;;;;15.00;9.95;;;;;;;1.84;68.69;97032.91;4992924;28;20058;-41
2021/03/01 02:59:22;;;;;;;19.20;10.27;;;;;;;2.39;66.83;97039.13;4975374;28;20097;-45
2021/03/01 03:01:50;;;;;;;15.60;10.02;;;;;;;1.70;69.03;97035.16;4980590;28;20051;-41
2021/03/01 03:04:19;;;;;;;16.77;10.65;;;;;;;1.38;70.65;97041.16;4987117;28;20042;-42
2021/03/01 03:06:47;;;;;;;14.90;9.73;;;;;;;1.68;69.78;97033.78;4994926;28;20089;-43
2021/03/01 03:09:15;;;;;;;20.30;10.80;;;;;;;2.02;67.96;97021.13;4986145;28;20063;-46
2021/03/01 03:11:45;;;;;;;14.50;9.00;;;;;;;1.49;70.07;97031.41;4992790;28;20081;-42
2021/03/01 03:14:18;;;;;;;15.77;9.38;;;;;;;1.64;69.67;97033.47;4994728;28;20042;-42
2021/03/01 03:16:48;;;;;;;14.57;9.15;;;;;;;1.36;71.06;97034.44;4989958;28;20134;-43
2021/03/01 03:19:15;;;;;;;18.02;10.15;;;;;;;1.21;71.17;97018.25;4979201;28;20051;-44
2021/03/01 03:21:41;;;;;;;18.15;10.68;;;;;;;1.66;69.76;97042.06;4987240;28;20042;-43
2021/03/01 03:24:08;;;;;;;15.52;10.00;;;;;;;1.52;70.27;97041.59;4994364;28;20463;-40
2021/03/01 03:26:35;;;;;;;16.98;9.75;;;;;;;1.45;70.71;97045.50;4994457;28;20419;-45
2021/03/01 03:29:02;;;;;;;17.38;10.35;;;;;;;1.49;70.19;97046.59;4986378;28;20057;-41
2021/03/01 03:31:28;;;;;;;18.00;10.27;;;;;;;1.44;70.75;97041.22;4975388;28;20059;-43
2021/03/01 03:33:56;;;;;;;16.50;9.75;;;;;;;1.30;71.31;97044.25;5004257;23;20050;-44
2021/03/01 03:36:25;;;;;;;16.63;10.38;;;;;;;1.36;71.22;97039.78;5004374;28;20148;-46
2021/03/01 03:39:08;;;;;;;16.98;10.38;;;;;;;1.76;69.51;97039.50;5010917;28;20088;-44
2021/03/01 03:41:37;;;;;;;17.33;10.13;;;;;;;1.79;69.00;97035.53;5004153;28;20066;-45
2021/03/01 03:44:09;;;;;;;20.25;10.93;;;;;;;1.70;69.37;97048.50;4998420;28;20065;-44
2021/03/01 03:46:36;;;;;;;14.57;10.07;;;;;;;1.39;70.47;97049.94;5011507;28;20739;-44
2021/03/01 03:49:06;;;;;;;16.35;10.73;;;;;;;1.23;71.23;97050.78;5011423;28;20061;-44
2021/03/01 03:51:34;;;;;;;14.43;9.75;;;;;;;1.70;69.47;97047.69;5007310;28;20060;-43
2021/03/01 03:54:07;;;;;;;17.48;9.90;;;;;;;1.47;70.00;97051.41;4997833;28;20053;-45
2021/03/01 03:56:36;;;;;;;19.02;9.77;;;;;;;1.38;70.84;97053.69;5012217;28;20141;-44
2021/03/01 03:59:07;;;;;;;15.20;10.35;;;;;;;1.58;69.88;97051.28;5008428;28;20085;-44
2021/03/01 04:01:35;;;;;;;15.25;9.63;;;;;;;1.55;69.92;97049.09;5011574;28;20679;-45
2021/03/01 04:04:05;;;;;;;18.15;9.90;;;;;;;1.27;70.94;97050.06;5011468;28;20045;-44
2021/03/01 04:06:37;;;;;;;18.75;11.05;;;;;;;1.38;70.65;97048.34;5006412;28;20132;-45
2021/03/01 04:09:06;;;;;;;15.82;10.00;;;;;;;1.48;70.15;97056.47;5009075;28;20550;-43
2021/03/01 04:11:33;;;;;;;16.50;10.40;;;;;;;1.76;68.53;97058.19;5010728;28;20089;-43
2021/03/01 04:14:00;;;;;;;16.85;10.25;;;;;;;1.40;70.54;97055.06;5012374;28;20042;-44
2021/03/01 04:16:30;;;;;;;17.20;10.35;;;;;;;1.35;70.75;97057.63;5005432;28;20057;-44
2021/03/01 04:19:01;;;;;;;17.20;10.35;;;;;;;1.26;71.39;97058.28;4992046;28;20534;-46
2021/03/01 04:21:27;;;;;;;18.27;10.68;;;;;;;1.37;70.91;97058.22;5009985;28;20056;-44
2021/03/01 04:23:55;;;;;;;15.00;10.13;;;;;;;0.99;72.14;97058.97;5010393;28;20074;-45
2021/03/01 04:26:23;;;;;;;16.50;11.20;;;;;;;0.79;73.08;97064.00;5009162;28;20077;-44
2021/03/01 04:28:50;;;;;;;20.45;10.55;;;;;;;1.15;72.02;97047.50;5011008;28;20053;-44
2021/03/01 04:31:17;;;;;;;18.75;11.23;;;;;;;1.36;70.77;97053.09;5007731;28;20099;-44
2021/03/01 04:33:44;;;;;;;15.25;9.88;;;;;;;1.24;70.78;97055.09;5011026;28;20054;-46
2021/03/01 04:36:11;;;;;;;17.77;10.32;;;;;;;1.51;70.46;97056.00;5011560;28;20054;-47
2021/03/01 04:38:38;;;;;;;20.27;10.32;;;;;;;1.56;69.65;97057.91;5009047;28;20037;-43
2021/03/01 04:41:05;;;;;;;17.50;10.40;;;;;;;1.20;70.85;97040.63;5004518;28;20077;-44
2021/03/01 04:43:35;;;;;;;16.15;10.25;;;;;;;1.39;70.37;97055.28;5012078;28;20049;-43
2021/03/01 04:46:03;;;;;;;16.90;10.55;;;;;;;1.70;68.88;97055.69;5010877;28;20104;-46
2021/03/01 04:48:30;;;;;;;19.52;9.88;;;;;;;1.36;70.20;97055.78;4994255;28;20132;-43
2021/03/01 04:50:57;;;;;;;19.00;10.18;;;;;;;1.50;69.66;97049.06;5004591;28;20054;-47
2021/03/01 04:53:25;;;;;;;24.17;11.82;;;;;;;1.82;68.51;97051.03;5010867;28;20507;-49
2021/03/01 04:55:52;;;;;;;18.98;11.40;;;;;;;1.18;71.16;97048.88;5010741;28;20103;-49
2021/03/01 04:58:19;;;;;;;19.48;11.35;;;;;;;1.16;71.40;97033.09;4992510;28;20085;-44
2021/03/01 05:00:46;;;;;;;18.80;10.35;;;;;;;1.63;69.33;97054.03;5001763;28;20085;-51
2021/03/01 05:03:13;;;;;;;16.17;10.15;;;;;;;1.69;69.10;97046.91;5009783;28;20038;-47
2021/03/01 05:05:41;;;;;;;17.98;9.98;;;;;;;1.63;69.16;97042.53;5010243;28;20045;-49
2021/03/01 05:08:14;;;;;;;17.85;10.63;;;;;;;1.91;68.16;97044.19;5012023;28;20064;-47
2021/03/01 05:10:41;;;;;;;17.45;10.65;;;;;;;1.69;68.57;97043.41;5006770;28;20096;-46
2021/03/01 05:13:07;;;;;;;18.75;11.27;;;;;;;1.25;70.57;97038.84;5012014;28;20061;-49
2021/03/01 05:15:34;;;;;;;24.45;11.35;;;;;;;1.15;71.12;97039.50;5008563;28;20096;-40
2021/03/01 05:18:02;;;;;;;20.08;10.88;;;;;;;0.95;72.29;97033.88;5005721;28;20140;-40
2021/03/01 05:20:29;;;;;;;21.00;11.13;;;;;;;1.07;71.91;97037.25;5002612;28;20046;-41
2021/03/01 05:22:55;;;;;;;23.92;10.73;;;;;;;1.06;71.68;97032.97;5011473;28;20054;-40
2021/03/01 05:25:22;;;;;;;24.55;10.48;;;;;;;0.79;72.70;97038.16;5009995;28;20112;-41
2021/03/01 05:27:48;;;;;;;22.13;12.10;;;;;;;0.87;72.32;97026.28;4995593;28;20581;-41
2021/03/01 05:30:15;;;;;;;19.33;11.10;;;;;;;0.77;73.20;97039.44;5001106;28;20086;-44
2021/03/01 05:32:41;;;;;;;18.55;10.70;;;;;;;1.38;70.47;97043.81;5010511;28;20104;-41
2021/03/01 05:35:09;;;;;;;21.90;12.23;;;;;;;0.93;71.90;97027.97;5007511;28;20117;-51
2021/03/01 05:37:35;;;;;;;16.98;9.90;;;;;;;0.83;72.76;97049.13;5004534;28;20065;-46
2021/03/01 05:40:10;;;;;;;18.00;10.43;;;;;;;0.90;72.76;97039.09;4990409;28;20045;-41
2021/03/01 05:42:40;;;;;;;16.88;9.65;;;;;;;1.12;71.68;97031.97;5009292;28;20049;-41
2021/03/01 05:45:09;;;;;;;22.20;11.07;;;;;;;1.25;71.29;97036.16;5006832;28;20061;-44
2021/03/01 05:47:36;;;;;;;18.30;10.45;;;;;;;1.44;70.00;97042.03;5004169;28;20137;-45
2021/03/01 05:50:07;;;;;;;17.10;10.88;;;;;;;1.36;70.65;97043.25;4989131;28;20054;-44
2021/03/01 05:52:36;;;;;;;18.95;10.73;;;;;;;1.27;70.92;97065.22;5012180;28;20052;-47
2021/03/01 05:55:04;;;;;;;20.95;11.43;;;;;;;1.36;70.59;97053.09;5007111;28;20104;-48
2021/03/01 05:57:33;;;;;;;22.75;11.27;;;;;;;1.05;72.08;97042.00;5005111;28;20419;-47
2021/03/01 06:00:00;;;;;;;22.95;11.57;;;;;;;0.98;72.35;97057.38;4996182;28;20050;-46
2021/03/01 06:02:27;;;;;;;15.55;10.43;;;;;;;1.39;70.92;97064.09;5013414;28;20180;-47
2021/03/01 06:04:54;;;;;;;23.88;11.43;;;;;;;1.34;71.13;97060.56;5013126;28;20455;-47
2021/03/01 06:07:21;;;;;;;21.20;11.02;;;;;;;1.84;68.55;97052.41;5013798;28;20092;-44
2021/03/01 06:09:47;;;;;;;23.10;12.55;;;;;;;1.90;68.57;97052.47;5006464;28;20070;-46
2021/03/01 06:12:13;;;;;;;20.08;11.00;;;;;;;1.42;70.29;97068.13;5011986;28;20058;-42
2021/03/01 06:14:40;;;;;;;21.55;11.85;;;;;;;1.30;71.23;97064.75;5011158;28;20054;-44
2021/03/01 06:17:18;;;;;;;22.83;12.43;;;;;;;1.25;72.29;97059.34;5014195;28;20506;-44
2021/03/01 06:19:55;;;;;;;18.95;11.68;;;;;;;0.88;73.94;97070.53;5004783;28;20121;-44
2021/03/01 06:22:43;;;;;;;18.38;11.73;;;;;;;1.12;72.47;97065.84;5013681;28;20526;-45
2021/03/01 06:25:15;;;;;;;22.25;11.13;;;;;;;1.24;72.18;97071.09;5013448;28;20050;-47
2021/03/01 06:27:51;;;;;;;21.77;12.13;;;;;;;1.52;71.09;97068.25;5005859;28;20074;-44
2021/03/01 06:30:27;;;;;;;23.45;13.02;;;;;;;1.98;69.14;97073.38;5004978;28;20126;-41
2021/03/01 06:33:11;;;;;;;20.10;12.65;;;;;;;1.58;70.70;97071.81;5013238;28;20074;-41
2021/03/01 06:35:50;;;;;;;20.50;11.88;;;;;;;1.29;71.85;97073.81;5013150;28;20050;-46
2021/03/01 06:38:34;;;;;;;19.02;12.35;;;;;;;1.70;70.78;97087.72;5003840;28;20462;-47
2021/03/01 06:41:15;;;;;;;20.38;11.73;;;;;;;1.47;71.39;97086.88;5026200;28;20563;-42
2021/03/01 06:43:55;;;;;;;20.67;12.68;;;;;;;1.12;72.97;97095.94;5011417;28;20120;-47
2021/03/01 06:46:23;;;;;;;21.63;12.18;;;;;;;1.22;72.32;97095.31;5009734;28;20499;-44
2021/03/01 06:48:50;;;;;;;23.48;13.32;;;;;;;1.05;72.86;97089.19;5008668;28;20057;-43
2021/03/01 06:51:17;;;;;;;21.33;12.80;;;;;;;1.42;71.47;97092.13;5014504;28;20054;-44
2021/03/01 06:53:44;;;;;;;26.25;13.10;;;;;;;1.58;70.70;97096.63;5011105;28;20109;-44
2021/03/01 06:56:14;;;;;;;22.98;13.10;;;;;;;1.72;70.32;97104.25;5007016;28;20054;-44
2021/03/01 06:58:43;;;;;;;21.67;13.13;;;;;;;1.57;71.12;97102.22;4994128;28;20070;-44
2021/03/01 07:01:13;;;;;;;22.35;13.73;;;;;;;1.90;69.71;97105.84;5002537;28;20056;-44
2021/03/01 07:03:45;;;;;;;22.10;12.55;;;;;;;1.92;69.63;97101.06;5011801;28;20046;-44
2021/03/01 07:06:12;;;;;;;19.40;11.93;;;;;;;1.81;69.95;97097.44;5006964;28;20053;-47
2021/03/01 07:08:49;;;;;;;18.15;12.30;;;;;;;1.39;71.44;97093.41;5007443;28;20129;-46
2021/03/01 07:11:36;;;;;;;17.98;12.68;;;;;;;1.63;71.44;97099.38;5000851;28;20515;-45
2021/03/01 07:14:04;;;;;;;17.52;11.55;;;;;;;1.84;70.53;97103.09;5004094;28;20380;-44
2021/03/01 07:16:38;;;;;;;21.55;12.75;;;;;;;1.77;70.75;97102.47;5030817;28;20134;-44
2021/03/01 07:19:08;;;;;;;18.48;11.40;;;;;;;2.34;68.00;97098.63;5010783;28;20139;-44
2021/03/01 07:21:37;;;;;;;20.92;12.25;;;;;;;2.33;68.41;97100.47;5003403;28;20077;-45
2021/03/01 07:24:05;;;;;;;19.23;11.68;;;;;;;2.23;68.44;97099.56;5012541;28;20065;-44
2021/03/01 07:26:33;;;;;;;20.70;11.55;;;;;;;2.13;68.94;97105.59;5012874;28;20474;-44
2021/03/01 07:29:11;;;;;;;17.90;11.20;;;;;;;2.56;67.95;97095.91;5003139;28;20531;-44
2021/03/01 07:31:41;;;;;;;16.17;10.77;;;;;;;1.92;69.50;97099.22;5010037;28;20100;-46
2021/03/01 07:34:10;;;;;;;21.08;11.40;;;;;;;2.20;68.87;97100.06;5012688;28;20046;-48
2021/03/01 07:36:37;;;;;;;19.60;11.35;;;;;;;2.09;69.29;97105.28;5011872;28;20054;-45
2021/03/01 07:39:07;;;;;;;16.58;10.70;;;;;;;2.13;69.11;97102.13;5000109;28;20515;-47
2021/03/01 07:41:34;;;;;;;20.42;11.45;;;;;;;1.81;70.12;97110.78;5012383;28;20050;-45
2021/03/01 07:44:03;;;;;;;21.20;11.40;;;;;;;2.16;69.21;97120.31;5028050;28;20066;-45
2021/03/01 07:46:39;;;;;;;17.02;10.55;;;;;;;2.24;69.23;97120.69;5010498;28;20050;-45
2021/03/01 07:49:11;;;;;;;15.95;10.05;;;;;;;1.95;69.87;97117.41;5010586;28;20066;-45
2021/03/01 07:51:46;;;;;;;18.65;11.70;;;;;;;2.48;68.62;97115.88;5011032;28;20054;-45
2021/03/01 07:54:15;;;;;;;18.45;9.88;;;;;;;2.52;68.62;97119.66;5011275;28;20046;-46
2021/03/01 07:56:43;;;;;;;18.02;12.07;;;;;;;2.73;67.50;97117.16;5004015;28;20054;-45
2021/03/01 07:59:11;;;;;;;19.75;11.73;;;;;;;2.45;68.21;97126.25;5004767;28;20061;-46
2021/03/01 08:01:39;;;;;;;17.35;10.73;;;;;;;2.22;68.77;97116.66;5023537;28;20041;-49
2021/03/01 08:04:06;;;;;;;16.92;10.75;;;;;;;2.29;69.11;97125.28;5010898;28;20054;-46
2021/03/01 08:06:56;;;;;;;16.27;10.60;;;;;;;2.38;68.55;97118.44;5010286;28;20054;-49
2021/03/01 08:09:52;;;;;;;17.60;11.15;;;;;;;2.91;67.07;97124.03;5004391;28;20066;-46
2021/03/01 08:12:28;;;;;;;19.10;10.98;;;;;;;2.38;68.66;97123.78;4993753;28;20068;-46
2021/03/01 08:14:57;;;;;;;21.77;11.05;;;;;;;2.51;68.88;97112.69;5015743;28;20038;-48
2021/03/01 08:17:29;;;;;;;18.00;10.95;;;;;;;2.64;68.52;97119.50;5010557;28;20053;-47
2021/03/01 08:19:57;;;;;;;15.90;10.93;;;;;;;2.73;68.66;97123.34;4998325;28;20522;-45
2021/03/01 08:22:25;;;;;;;17.80;11.52;;;;;;;2.90;67.64;97117.88;5011704;28;20116;-47
2021/03/01 08:24:57;;;;;;;16.67;10.65;;;;;;;3.11;66.88;97112.69;5003198;28;20037;-44
2021/03/01 08:27:26;;;;;;;16.07;10.60;;;;;;;3.28;66.57;97108.84;5007909;28;20057;-46
2021/03/01 08:30:22;;;;;;;18.40;11.30;;;;;;;3.23;66.79;97110.66;5007133;28;20046;-41
2021/03/01 08:33:26;;;;;;;18.20;9.65;;;;;;;3.32;67.04;97116.34;5011951;28;20050;-41
2021/03/01 08:35:59;;;;;;;16.58;10.23;;;;;;;3.30;66.80;97123.81;4980989;28;20054;-42
2021/03/01 08:38:45;;;;;;;16.38;9.50;;;;;;;3.54;66.09;97117.03;5008136;28;20552;-41
2021/03/01 08:41:19;;;;;;;13.63;9.57;;;;;;;3.55;65.61;97125.88;5009536;28;20057;-40
2021/03/01 08:43:53;;;;;;;15.55;9.52;;;;;;;3.68;65.09;97117.41;5011603;28;20065;-40
2021/03/01 08:46:21;;;;;;;14.60;9.32;;;;;;;3.63;65.32;97117.34;5012655;28;20549;-47
2021/03/01 08:48:53;;;;;;;15.80;8.93;;;;;;;3.81;64.84;97118.81;5003985;28;20044;-45
2021/03/01 08:51:21;;;;;;;12.60;9.60;;;;;;;3.57;65.44;97118.38;5018448;28;20183;-42
2021/03/01 08:53:51;;;;;;;13.82;9.52;;;;;;;3.90;65.03;97128.75;5021321;28;20049;-43
2021/03/01 08:56:23;;;;;;;19.00;9.80;;;;;;;3.83;65.69;97122.81;5007012;28;20546;-41
2021/03/01 08:58:49;;;;;;;16.00;10.15;;;;;;;3.77;65.96;97121.19;4999904;28;20100;-48
2021/03/01 09:01:16;;;;;;;16.33;9.80;;;;;;;3.98;65.51;97124.78;5008166;28;20459;-41
2021/03/01 09:03:44;;;;;;;15.60;9.90;;;;;;;3.75;65.75;97126.78;5010657;28;20523;-45
2021/03/01 09:06:22;;;;;;;17.23;10.18;;;;;;;3.59;66.46;97125.09;5010596;28;20046;-46
2021/03/01 09:08:53;;;;;;;16.38;9.52;;;;;;;3.61;66.77;97119.50;5008977;28;20046;-44
2021/03/01 09:11:23;;;;;;;17.65;10.25;;;;;;;3.59;66.67;97127.75;5002688;28;20057;-47
2021/03/01 09:14:05;;;;;;;15.70;9.45;;;;;;;3.60;66.60;97121.34;5011035;28;20049;-45
2021/03/01 09:16:37;;;;;;;17.38;9.88;;;;;;;3.48;67.43;97118.88;5011608;28;20073;-45
2021/03/01 09:19:07;;;;;;;15.02;9.68;;;;;;;3.61;66.62;97114.94;5007512;28;20143;-45
2021/03/01 09:21:38;;;;;;;14.77;9.38;;;;;;;3.69;66.27;97119.00;5011327;28;20123;-44
2021/03/01 09:24:06;;;;;;;16.15;10.65;;;;;;;4.14;64.82;97122.97;5009463;28;20566;-44
2021/03/01 09:26:37;;;;;;;18.00;9.57;;;;;;;4.24;64.52;97116.84;5012302;28;20108;-45
2021/03/01 09:29:07;;;;;;;18.02;9.73;;;;;;;4.35;63.81;97113.94;5005687;28;20133;-44
2021/03/01 09:31:48;;;;;;;18.65;9.38;;;;;;;4.63;62.35;97119.91;4993772;28;20058;-46
2021/03/01 09:34:17;;;;;;;14.73;8.32;;;;;;;4.58;62.65;97101.97;4994162;28;20050;-45
2021/03/01 09:37:07;;;;;;;18.65;9.43;;;;;;;4.86;62.16;97110.56;5000552;28;20054;-44
2021/03/01 09:39:37;;;;;;;13.23;9.05;;;;;;;5.13;60.64;97123.72;5005547;28;20066;-44
2021/03/01 09:42:04;;;;;;;18.13;9.00;;;;;;;5.00;61.30;97121.56;5005995;28;20569;-46
2021/03/01 09:44:32;;;;;;;13.07;8.82;;;;;;;5.22;60.62;97106.03;5011019;28;20104;-44
2021/03/01 09:46:59;;;;;;;15.65;9.48;;;;;;;5.57;58.93;97110.56;5011152;28;20050;-44
2021/03/01 09:49:31;;;;;;;15.48;9.02;;;;;;;5.29;60.54;97103.06;5005068;28;20050;-44
2021/03/01 09:51:57;;;;;;;14.90;9.25;;;;;;;5.41;59.83;97108.97;5004621;28;20503;-44
2021/03/01 09:54:25;;;;;;;13.27;8.48;;;;;;;5.54;60.02;97111.09;5009259;28;20046;-41
2021/03/01 09:56:55;;;;;;;13.88;9.50;;;;;;;6.05;58.50;97097.59;5010315;28;20049;-44
2021/03/01 09:59:34;;;;;;;13.35;8.95;;;;;;;5.91;58.42;97095.72;5006614;28;21506;-41
2021/03/01 10:02:09;;;;;;;14.32;8.50;;;;;;;5.91;58.90;97093.03;5009286;28;20054;-44
2021/03/01 10:04:36;;;;;;;13.10;8.10;;;;;;;6.06;57.88;97088.44;5008388;28;20137;-41
2021/03/01 10:07:21;;;;;;;12.23;8.40;;;;;;;6.15;57.31;97094.06;5008995;28;20145;-41
2021/03/01 10:09:48;;;;;;;12.90;8.27;;;;;;;6.28;56.01;97092.66;5006147;28;20049;-48
2021/03/01 10:12:15;;;;;;;13.88;8.50;;;;;;;6.89;54.00;97084.25;5011060;28;20077;-41
2021/03/01 10:14:42;;;;;;;11.32;7.63;;;;;;;7.03;51.63;97092.47;5008531;28;20064;-45
2021/03/01 10:17:21;;;;;;;14.30;7.28;;;;;;;6.42;53.62;97088.28;5002260;28;20130;-49
2021/03/01 10:19:48;;;;;;;15.00;7.00;;;;;;;6.58;51.40;97078.25;5006733;28;20053;-47
2021/03/01 10:22:15;;;;;;;9.50;6.88;;;;;;;6.84;50.87;97086.97;5010958;28;20050;-49
2021/03/01 10:24:44;;;;;;;10.18;6.10;;;;;;;7.05;49.71;97089.50;5007853;28;20056;-44
2021/03/01 10:27:12;;;;;;;10.25;6.25;;;;;;;7.17;48.64;97079.19;5002222;28;20054;-49
2021/03/01 10:29:49;;;;;;;11.35;7.22;;;;;;;7.19;48.52;97071.63;5003979;28;20104;-45
2021/03/01 10:32:23;;;;;;;11.10;6.63;;;;;;;7.32;48.01;97076.38;4991329;28;20133;-49
2021/03/01 10:34:51;;;;;;;10.63;6.15;;;;;;;7.29;47.44;97071.53;5002236;28;20099;-49
2021/03/01 10:37:23;;;;;;;10.45;5.75;;;;;;;7.31;46.68;97071.25;5008847;28;20069;-48
2021/03/01 10:39:50;;;;;;;10.40;6.78;;;;;;;7.57;46.37;97071.81;4990805;28;20066;-50
2021/03/01 10:42:22;;;;;;;7.93;5.93;;;;;;;7.64;46.06;97066.91;4997342;28;20057;-48
2021/03/01 10:44:56;;;;;;;8.60;6.28;;;;;;;7.91;44.47;97066.34;5012268;28;20418;-47
2021/03/01 10:47:29;;;;;;;8.90;6.00;;;;;;;7.96;44.33;97074.34;5010886;28;20081;-46
2021/03/01 10:49:57;;;;;;;;;;;;;;;8.23;43.79;97068.38;5012189;28;20100;-44
2021/03/01 10:52:25;;;;;;;13.40;6.40;;;;;;;8.08;44.19;97058.59;5012388;28;19965;-47
2021/03/01 10:54:54;;;;;;;11.02;7.45;;;;;;;8.20;44.33;97069.75;5012567;28;20136;-44
2021/03/01 10:57:23;;;;;;;11.35;6.88;;;;;;;8.17;46.72;97056.06;5008114;28;20050;-48
2021/03/01 10:59:51;;;;;;;11.38;7.32;;;;;;;8.12;46.92;97059.59;4993669;28;20522;-48
2021/03/01 11:02:18;;;;;;;10.25;7.25;;;;;;;8.42;46.14;97065.75;4994774;28;20058;-46
2021/03/01 11:04:46;;;;;;;12.80;7.88;;;;;;;8.41;46.39;97070.31;4994411;28;20049;-47
2021/03/01 11:07:13;;;;;;;12.15;8.00;;;;;;;8.49;45.18;97054.59;4994465;28;20097;-47
2021/03/01 11:09:39;;;;;;;10.75;7.03;;;;;;;8.47;48.20;97060.28;4994088;28;20046;-50
2021/03/01 11:12:06;;;;;;;13.05;7.82;;;;;;;8.17;47.52;97056.84;4994615;28;20114;-47
2021/03/01 11:14:33;;;;;;;13.40;8.25;;;;;;;8.52;47.04;97056.72;4992853;28;20057;-47
2021/03/01 11:17:01;;;;;;;20.10;9.05;;;;;;;9.32;45.98;97058.44;4993663;28;20054;-44
2021/03/01 11:19:28;;;;;;;14.73;8.38;;;;;;;9.08;46.51;97047.78;4993671;28;20065;-46
2021/03/01 11:21:54;;;;;;;11.68;8.10;;;;;;;8.86;46.21;97057.28;4993891;28;20058;-48
2021/03/01 11:24:22;;;;;;;11.32;7.78;;;;;;;9.15;43.85;97055.50;4993832;28;20408;-50
2021/03/01 11:26:49;;;;;;;12.70;8.50;;;;;;;9.69;44.10;97054.81;4993750;28;20050;-49
2021/03/01 11:29:16;;;;;;;12.52;8.48;;;;;;;11.91;40.07;97053.84;4993654;28;20062;-48
2021/03/01 11:31:43;;;;;;;13.15;8.57;;;;;;;15.18;33.06;97042.84;4993906;28;20061;-48
2021/03/01 11:34:11;;;;;;;11.93;8.95;;;;;;;18.06;27.08;97053.16;4993691;28;20678;-47
2021/03/01 11:36:39;;;;;;;11.98;8.55;;;;;;;21.18;23.37;97036.66;4993771;28;20423;-48
2021/03/01 11:39:07;;;;;;;12.82;9.25;;;;;;;21.24;22.04;97046.19;4993544;28;20496;-46
2021/03/01 11:41:34;;;;;;;11.80;8.93;;;;;;;21.12;22.55;97042.88;4993208;28;20488;-44
2021/03/01 11:44:00;;;;;;;10.98;8.63;;;;;;;16.38;29.09;97035.56;4993554;28;20240;-44
2021/03/01 11:46:30;;;;;;;11.65;9.10;;;;;;;14.48;33.23;97028.91;4993546;28;20097;-44